Quick Links (Output Below):   Max & Min Temps   /   Climate Reports   /   Zone Forecasts
River Forecasts   /   Forestry Forecasts   /   Aviation Forecasts   /   Radars   /   Features

Terminal Aerodrome Forecast (Harrison)

Pick a Site:
Arkadelphia | El Dorado | Fayetteville | Fort Smith | Harrison | Highfill | Hot Springs | Jonesboro
Little Rock | Monticello | Mountain Home | Pine Bluff | Texarkana
 Forecast 

KHRO 181527Z 1815/1912 13006KT 5SM BR OVC005
      TEMPO 1815/1818 3SM -DZ BR OVC003
     FM181800 VRB05KT 6SM BR OVC007
     FM190000 VRB02KT 4SM BR OVC005
     FM190400 06003KT 2SM -DZ BR OVC004
      TEMPO 1908/1912 1/2SM FG OVC002=


 Latest METARs (Observations) 
How to Decode METARs
16Z KHRO 181553Z AUTO 15008KT 9SM OVC004 02/02 A3020 RMK AO2 CIG
         003V009 SLP234 T00220017
         
15Z KHRO 181453Z AUTO 14007KT 3SM BR OVC003 01/01 A3020 RMK AO2 SLP235
         T00110011 53011
         
14Z KHRO 181353Z AUTO 13007KT 1 1/2SM BR OVC002 01/01 A3018 RMK AO2
         SLP231 T00060006
         
13Z KHRO 181253Z AUTO 11005KT 3SM BR OVC002 01/01 A3018 RMK AO2 SLP228
         T00060006
         
12Z KHRO 181153Z AUTO 12006KT 5SM BR OVC002 01/01 A3016 RMK AO2 SLP224
         60000 70052 T00060006 10006 20000 53001
         
11Z KHRO 181053Z AUTO 11005KT 7SM OVC003 01/01 A3016 RMK AO2 SLP222
         T00060006
         
10Z KHRO 180953Z AUTO 12007KT 7SM OVC002 01/01 A3015 RMK AO2 SLP219
         T00060006
         
09Z KHRO 180853Z AUTO 12009KT 8SM OVC003 01/00 A3016 RMK AO2 SLP222
         60000 T00060000 58013
         
08Z KHRO 180753Z AUTO 13010KT 10SM OVC004 01/00 A3018 RMK AO2 SLP229
         T00060000
         
07Z KHRO 180653Z AUTO 13008KT 10SM BKN005 OVC045 01/00 A3019 RMK AO2
         RAE01 SLP232 P0000 T00060000
         
***** Today's Observations (Above) *****


Back to Main Page
http://www.srh.noaa.gov/lzk/qfcst.php

USA.gov is the U.S. government's official web portal to all federal, state and local government web resources and services.